sensor_id;sensor_type;location;lat;lon;timestamp;temperature;humidity
53880;DHT22;39791;53.184;5.486;2022-10-30T00:00:19;14.50;99.90
53880;DHT22;39791;53.184;5.486;2022-10-30T00:02:46;14.90;99.90
53880;DHT22;39791;53.184;5.486;2022-10-30T00:05:12;16.30;99.90
53880;DHT22;39791;53.184;5.486;2022-10-30T00:07:37;15.90;99.90
53880;DHT22;39791;53.184;5.486;2022-10-30T00:10:03;14.60;99.90
53880;DHT22;39791;53.184;5.486;2022-10-30T00:12:29;16.40;99.90
53880;DHT22;39791;53.184;5.486;2022-10-30T00:14:54;14.70;99.90
53880;DHT22;39791;53.184;5.486;2022-10-30T00:17:20;16.10;99.90
53880;DHT22;39791;53.184;5.486;2022-10-30T00:19:45;15.70;99.90
53880;DHT22;39791;53.184;5.486;2022-10-30T00:22:11;15.20;99.90
53880;DHT22;39791;53.184;5.486;2022-10-30T00:24:36;14.70;99.90
53880;DHT22;39791;53.184;5.486;2022-10-30T00:27:02;14.60;99.90
53880;DHT22;39791;53.184;5.486;2022-10-30T00:29:28;15.00;99.90
53880;DHT22;39791;53.184;5.486;2022-10-30T00:31:53;16.30;99.90
53880;DHT22;39791;53.184;5.486;2022-10-30T00:34:19;16.50;99.90
53880;DHT22;39791;53.184;5.486;2022-10-30T00:36:45;16.50;99.90
53880;DHT22;39791;53.184;5.486;2022-10-30T00:39:10;16.50;99.90
53880;DHT22;39791;53.184;5.486;2022-10-30T00:41:36;14.90;99.90
53880;DHT22;39791;53.184;5.486;2022-10-30T00:44:31;16.50;99.90
53880;DHT22;39791;53.184;5.486;2022-10-30T00:46:58;16.30;99.90
53880;DHT22;39791;53.184;5.486;2022-10-30T00:49:30;14.60;99.90
53880;DHT22;39791;53.184;5.486;2022-10-30T00:51:58;15.00;99.90
53880;DHT22;39791;53.184;5.486;2022-10-30T00:54:24;16.00;99.90
53880;DHT22;39791;53.184;5.486;2022-10-30T00:56:50;14.50;99.90
53880;DHT22;39791;53.184;5.486;2022-10-30T00:59:19;14.60;99.90
53880;DHT22;39791;53.184;5.486;2022-10-30T01:01:47;14.50;99.90
53880;DHT22;39791;53.184;5.486;2022-10-30T01:04:14;15.80;99.90
53880;DHT22;39791;53.184;5.486;2022-10-30T01:06:43;16.40;99.90
53880;DHT22;39791;53.184;5.486;2022-10-30T01:09:09;16.20;99.90
53880;DHT22;39791;53.184;5.486;2022-10-30T01:11:35;15.50;99.90
53880;DHT22;39791;53.184;5.486;2022-10-30T01:14:04;15.50;99.90
53880;DHT22;39791;53.184;5.486;2022-10-30T01:16:41;15.90;99.90
53880;DHT22;39791;53.184;5.486;2022-10-30T01:19:17;15.80;99.90
53880;DHT22;39791;53.184;5.486;2022-10-30T01:24:40;16.30;99.90
53880;DHT22;39791;53.184;5.486;2022-10-30T01:27:50;14.60;99.90
53880;DHT22;39791;53.184;5.486;2022-10-30T01:36:16;14.50;99.90
53880;DHT22;39791;53.184;5.486;2022-10-30T01:38:59;14.70;99.90
53880;DHT22;39791;53.184;5.486;2022-10-30T01:41:26;14.70;99.90
53880;DHT22;39791;53.184;5.486;2022-10-30T01:43:54;15.90;99.90
53880;DHT22;39791;53.184;5.486;2022-10-30T01:54:34;16.50;99.90
53880;DHT22;39791;53.184;5.486;2022-10-30T01:57:21;15.30;99.90
53880;DHT22;39791;53.184;5.486;2022-10-30T01:59:55;16.30;99.90
53880;DHT22;39791;53.184;5.486;2022-10-30T02:02:23;15.70;99.90
53880;DHT22;39791;53.184;5.486;2022-10-30T02:04:49;15.00;99.90
53880;DHT22;39791;53.184;5.486;2022-10-30T02:07:14;15.20;99.90
53880;DHT22;39791;53.184;5.486;2022-10-30T02:09:40;14.80;99.90
53880;DHT22;39791;53.184;5.486;2022-10-30T02:12:07;16.60;99.90
53880;DHT22;39791;53.184;5.486;2022-10-30T02:14:37;14.70;99.90
53880;DHT22;39791;53.184;5.486;2022-10-30T02:17:05;14.80;99.90
53880;DHT22;39791;53.184;5.486;2022-10-30T02:19:31;16.60;99.90
53880;DHT22;39791;53.184;5.486;2022-10-30T02:21:56;16.60;99.90
53880;DHT22;39791;53.184;5.486;2022-10-30T02:24:22;15.70;99.90
53880;DHT22;39791;53.184;5.486;2022-10-30T02:26:48;14.60;99.90
53880;DHT22;39791;53.184;5.486;2022-10-30T02:29:13;16.10;99.90
53880;DHT22;39791;53.184;5.486;2022-10-30T02:31:39;14.60;99.90
53880;DHT22;39791;53.184;5.486;2022-10-30T02:34:04;14.70;99.90
53880;DHT22;39791;53.184;5.486;2022-10-30T02:36:30;16.60;99.90
53880;DHT22;39791;53.184;5.486;2022-10-30T02:38:56;16.30;99.90
53880;DHT22;39791;53.184;5.486;2022-10-30T02:41:22;14.50;99.90
53880;DHT22;39791;53.184;5.486;2022-10-30T02:43:49;16.60;99.90
53880;DHT22;39791;53.184;5.486;2022-10-30T02:46:15;16.10;99.90
53880;DHT22;39791;53.184;5.486;2022-10-30T02:48:41;14.90;99.90
53880;DHT22;39791;53.184;5.486;2022-10-30T02:51:07;16.40;99.90
53880;DHT22;39791;53.184;5.486;2022-10-30T02:53:33;15.10;99.90
53880;DHT22;39791;53.184;5.486;2022-10-30T02:56:03;16.70;99.90
53880;DHT22;39791;53.184;5.486;2022-10-30T02:58:29;14.90;99.90
53880;DHT22;39791;53.184;5.486;2022-10-30T03:00:54;16.70;99.90
53880;DHT22;39791;53.184;5.486;2022-10-30T03:03:20;16.60;99.90
53880;DHT22;39791;53.184;5.486;2022-10-30T03:05:45;15.00;99.90
53880;DHT22;39791;53.184;5.486;2022-10-30T03:08:11;14.90;99.90
53880;DHT22;39791;53.184;5.486;2022-10-30T03:10:36;15.30;99.90
53880;DHT22;39791;53.184;5.486;2022-10-30T03:13:02;16.40;99.90
53880;DHT22;39791;53.184;5.486;2022-10-30T03:15:27;15.50;99.90
53880;DHT22;39791;53.184;5.486;2022-10-30T03:17:53;15.80;99.90
53880;DHT22;39791;53.184;5.486;2022-10-30T03:20:19;15.40;99.90
53880;DHT22;39791;53.184;5.486;2022-10-30T03:22:44;17.50;99.90
53880;DHT22;39791;53.184;5.486;2022-10-30T03:25:10;16.70;99.90
53880;DHT22;39791;53.184;5.486;2022-10-30T03:27:35;16.10;99.90
53880;DHT22;39791;53.184;5.486;2022-10-30T03:30:01;15.80;99.90
53880;DHT22;39791;53.184;5.486;2022-10-30T03:32:26;16.70;99.90
53880;DHT22;39791;53.184;5.486;2022-10-30T03:34:52;17.90;99.90
53880;DHT22;39791;53.184;5.486;2022-10-30T03:37:17;17.30;99.90
53880;DHT22;39791;53.184;5.486;2022-10-30T03:39:43;15.50;99.90
53880;DHT22;39791;53.184;5.486;2022-10-30T03:42:08;17.50;99.90
53880;DHT22;39791;53.184;5.486;2022-10-30T03:44:34;15.70;99.90
53880;DHT22;39791;53.184;5.486;2022-10-30T03:46:59;16.90;99.90
53880;DHT22;39791;53.184;5.486;2022-10-30T03:49:25;16.50;99.90
53880;DHT22;39791;53.184;5.486;2022-10-30T03:51:51;17.50;99.90
53880;DHT22;39791;53.184;5.486;2022-10-30T03:54:16;16.90;99.90
53880;DHT22;39791;53.184;5.486;2022-10-30T03:56:43;17.40;99.90
53880;DHT22;39791;53.184;5.486;2022-10-30T03:59:09;15.20;99.90
53880;DHT22;39791;53.184;5.486;2022-10-30T04:01:35;16.50;99.90
53880;DHT22;39791;53.184;5.486;2022-10-30T04:04:00;17.00;99.90
53880;DHT22;39791;53.184;5.486;2022-10-30T04:06:26;15.70;99.90
53880;DHT22;39791;53.184;5.486;2022-10-30T04:08:53;15.40;99.90
53880;DHT22;39791;53.184;5.486;2022-10-30T04:11:19;15.10;99.90
53880;DHT22;39791;53.184;5.486;2022-10-30T04:13:45;16.20;99.90
53880;DHT22;39791;53.184;5.486;2022-10-30T04:16:10;15.20;99.90
53880;DHT22;39791;53.184;5.486;2022-10-30T04:18:36;15.20;99.90
53880;DHT22;39791;53.184;5.486;2022-10-30T04:21:01;16.60;99.90
53880;DHT22;39791;53.184;5.486;2022-10-30T04:23:27;17.20;99.90
53880;DHT22;39791;53.184;5.486;2022-10-30T04:25:52;15.00;99.90
53880;DHT22;39791;53.184;5.486;2022-10-30T04:28:18;17.40;99.90
53880;DHT22;39791;53.184;5.486;2022-10-30T04:30:45;16.40;99.90
53880;DHT22;39791;53.184;5.486;2022-10-30T04:33:12;16.80;99.90
53880;DHT22;39791;53.184;5.486;2022-10-30T04:35:39;16.90;99.90
53880;DHT22;39791;53.184;5.486;2022-10-30T04:38:09;14.70;99.90
53880;DHT22;39791;53.184;5.486;2022-10-30T04:40:37;15.60;99.90
53880;DHT22;39791;53.184;5.486;2022-10-30T04:43:04;15.10;99.90
53880;DHT22;39791;53.184;5.486;2022-10-30T04:45:30;16.00;99.90
53880;DHT22;39791;53.184;5.486;2022-10-30T04:48:04;16.20;99.90
53880;DHT22;39791;53.184;5.486;2022-10-30T04:50:32;16.30;99.90
53880;DHT22;39791;53.184;5.486;2022-10-30T04:53:02;16.30;99.90
53880;DHT22;39791;53.184;5.486;2022-10-30T04:55:29;15.50;99.90
53880;DHT22;39791;53.184;5.486;2022-10-30T04:57:56;14.30;99.90
53880;DHT22;39791;53.184;5.486;2022-10-30T05:00:23;15.40;99.90
53880;DHT22;39791;53.184;5.486;2022-10-30T05:02:49;16.00;99.90
53880;DHT22;39791;53.184;5.486;2022-10-30T05:05:14;14.70;99.90
53880;DHT22;39791;53.184;5.486;2022-10-30T05:07:40;15.90;99.90
53880;DHT22;39791;53.184;5.486;2022-10-30T05:10:06;14.50;99.90
53880;DHT22;39791;53.184;5.486;2022-10-30T05:12:31;15.00;99.90
53880;DHT22;39791;53.184;5.486;2022-10-30T05:14:57;14.40;99.90
53880;DHT22;39791;53.184;5.486;2022-10-30T05:17:22;13.60;99.90
53880;DHT22;39791;53.184;5.486;2022-10-30T05:19:48;15.30;99.90
53880;DHT22;39791;53.184;5.486;2022-10-30T05:22:13;15.20;99.90
53880;DHT22;39791;53.184;5.486;2022-10-30T05:24:39;14.60;99.90
53880;DHT22;39791;53.184;5.486;2022-10-30T05:27:04;15.20;99.90
53880;DHT22;39791;53.184;5.486;2022-10-30T05:29:30;13.30;99.90
53880;DHT22;39791;53.184;5.486;2022-10-30T05:31:55;13.40;99.90
53880;DHT22;39791;53.184;5.486;2022-10-30T05:34:21;13.20;99.90
53880;DHT22;39791;53.184;5.486;2022-10-30T05:36:46;15.30;99.90
53880;DHT22;39791;53.184;5.486;2022-10-30T05:39:12;14.70;99.90
53880;DHT22;39791;53.184;5.486;2022-10-30T05:41:37;13.30;99.90
53880;DHT22;39791;53.184;5.486;2022-10-30T05:44:03;13.30;99.90
53880;DHT22;39791;53.184;5.486;2022-10-30T05:46:29;14.80;99.90
53880;DHT22;39791;53.184;5.486;2022-10-30T05:48:54;15.00;99.90
53880;DHT22;39791;53.184;5.486;2022-10-30T05:51:20;13.60;99.90
53880;DHT22;39791;53.184;5.486;2022-10-30T05:53:47;14.90;99.90
53880;DHT22;39791;53.184;5.486;2022-10-30T05:56:13;13.00;99.90
53880;DHT22;39791;53.184;5.486;2022-10-30T05:58:39;14.60;99.90
53880;DHT22;39791;53.184;5.486;2022-10-30T06:01:07;14.80;99.90
53880;DHT22;39791;53.184;5.486;2022-10-30T06:03:33;14.20;99.90
53880;DHT22;39791;53.184;5.486;2022-10-30T06:05:58;13.00;99.90
53880;DHT22;39791;53.184;5.486;2022-10-30T06:08:24;13.00;99.90
53880;DHT22;39791;53.184;5.486;2022-10-30T06:10:49;13.00;99.90
53880;DHT22;39791;53.184;5.486;2022-10-30T06:13:15;14.90;99.90
53880;DHT22;39791;53.184;5.486;2022-10-30T06:15:41;14.50;99.90
53880;DHT22;39791;53.184;5.486;2022-10-30T06:18:06;13.60;99.90
53880;DHT22;39791;53.184;5.486;2022-10-30T06:20:32;13.20;99.90
53880;DHT22;39791;53.184;5.486;2022-10-30T06:22:58;14.10;99.90
53880;DHT22;39791;53.184;5.486;2022-10-30T06:25:25;15.10;99.90
53880;DHT22;39791;53.184;5.486;2022-10-30T06:27:51;15.20;99.90
53880;DHT22;39791;53.184;5.486;2022-10-30T06:30:17;12.90;99.90
53880;DHT22;39791;53.184;5.486;2022-10-30T06:32:43;13.40;99.90
53880;DHT22;39791;53.184;5.486;2022-10-30T06:35:09;14.40;99.90
53880;DHT22;39791;53.184;5.486;2022-10-30T06:37:35;12.70;99.90
53880;DHT22;39791;53.184;5.486;2022-10-30T06:40:05;13.20;99.90
53880;DHT22;39791;53.184;5.486;2022-10-30T06:42:31;13.80;99.90
53880;DHT22;39791;53.184;5.486;2022-10-30T06:44:56;14.60;99.90
53880;DHT22;39791;53.184;5.486;2022-10-30T06:47:22;13.30;99.90
53880;DHT22;39791;53.184;5.486;2022-10-30T06:49:47;14.20;99.90
53880;DHT22;39791;53.184;5.486;2022-10-30T06:52:13;14.20;99.90
53880;DHT22;39791;53.184;5.486;2022-10-30T06:54:38;14.80;99.90
53880;DHT22;39791;53.184;5.486;2022-10-30T06:57:04;14.20;99.90
53880;DHT22;39791;53.184;5.486;2022-10-30T06:59:29;14.00;99.90
53880;DHT22;39791;53.184;5.486;2022-10-30T07:01:55;13.60;99.90
53880;DHT22;39791;53.184;5.486;2022-10-30T07:04:20;13.00;99.90
53880;DHT22;39791;53.184;5.486;2022-10-30T07:06:46;13.00;99.90
53880;DHT22;39791;53.184;5.486;2022-10-30T07:09:12;13.00;99.90
53880;DHT22;39791;53.184;5.486;2022-10-30T07:11:37;14.30;99.90
53880;DHT22;39791;53.184;5.486;2022-10-30T07:14:06;15.00;99.90
53880;DHT22;39791;53.184;5.486;2022-10-30T07:16:31;13.20;99.90
53880;DHT22;39791;53.184;5.486;2022-10-30T07:18:57;15.00;99.90
53880;DHT22;39791;53.184;5.486;2022-10-30T07:21:25;14.40;99.90
53880;DHT22;39791;53.184;5.486;2022-10-30T07:23:50;13.30;99.90
53880;DHT22;39791;53.184;5.486;2022-10-30T07:26:16;15.60;99.90
53880;DHT22;39791;53.184;5.486;2022-10-30T07:28:41;14.40;99.90
53880;DHT22;39791;53.184;5.486;2022-10-30T07:31:07;15.50;99.90
53880;DHT22;39791;53.184;5.486;2022-10-30T07:33:32;15.30;99.90
53880;DHT22;39791;53.184;5.486;2022-10-30T07:36:02;15.70;99.90
53880;DHT22;39791;53.184;5.486;2022-10-30T07:38:27;14.90;99.90
53880;DHT22;39791;53.184;5.486;2022-10-30T07:40:53;14.20;99.90
53880;DHT22;39791;53.184;5.486;2022-10-30T07:43:19;16.30;99.90
53880;DHT22;39791;53.184;5.486;2022-10-30T07:45:45;15.50;99.90
53880;DHT22;39791;53.184;5.486;2022-10-30T07:48:10;15.30;99.90
53880;DHT22;39791;53.184;5.486;2022-10-30T07:50:36;14.40;99.90
53880;DHT22;39791;53.184;5.486;2022-10-30T07:53:02;16.90;99.90
53880;DHT22;39791;53.184;5.486;2022-10-30T07:55:27;15.40;99.90
53880;DHT22;39791;53.184;5.486;2022-10-30T07:57:53;16.00;99.90
53880;DHT22;39791;53.184;5.486;2022-10-30T08:00:19;17.00;99.90
53880;DHT22;39791;53.184;5.486;2022-10-30T08:02:48;17.40;99.90
53880;DHT22;39791;53.184;5.486;2022-10-30T08:05:15;15.50;99.90
53880;DHT22;39791;53.184;5.486;2022-10-30T08:07:40;16.90;99.90
53880;DHT22;39791;53.184;5.486;2022-10-30T08:10:07;15.80;99.90
53880;DHT22;39791;53.184;5.486;2022-10-30T08:12:33;16.30;99.90
53880;DHT22;39791;53.184;5.486;2022-10-30T08:14:59;17.40;99.90
53880;DHT22;39791;53.184;5.486;2022-10-30T08:17:25;18.30;99.90
53880;DHT22;39791;53.184;5.486;2022-10-30T08:19:50;16.60;99.90
53880;DHT22;39791;53.184;5.486;2022-10-30T08:22:16;16.60;99.90
53880;DHT22;39791;53.184;5.486;2022-10-30T08:24:41;17.50;99.90
53880;DHT22;39791;53.184;5.486;2022-10-30T08:27:08;18.70;99.90
53880;DHT22;39791;53.184;5.486;2022-10-30T08:29:34;17.40;99.90
53880;DHT22;39791;53.184;5.486;2022-10-30T08:32:00;18.90;99.90
53880;DHT22;39791;53.184;5.486;2022-10-30T08:34:25;16.80;99.90
53880;DHT22;39791;53.184;5.486;2022-10-30T08:36:52;18.30;99.90
53880;DHT22;39791;53.184;5.486;2022-10-30T08:39:18;18.50;99.90
53880;DHT22;39791;53.184;5.486;2022-10-30T08:41:44;17.40;99.90
53880;DHT22;39791;53.184;5.486;2022-10-30T08:44:10;17.70;99.90
53880;DHT22;39791;53.184;5.486;2022-10-30T08:46:35;19.10;99.90
53880;DHT22;39791;53.184;5.486;2022-10-30T08:49:02;17.30;99.90
53880;DHT22;39791;53.184;5.486;2022-10-30T08:51:31;18.30;99.90
53880;DHT22;39791;53.184;5.486;2022-10-30T08:53:56;18.00;99.90
53880;DHT22;39791;53.184;5.486;2022-10-30T08:56:22;19.30;99.90
53880;DHT22;39791;53.184;5.486;2022-10-30T08:58:49;19.30;99.90
53880;DHT22;39791;53.184;5.486;2022-10-30T09:01:15;18.10;99.90
53880;DHT22;39791;53.184;5.486;2022-10-30T09:03:40;19.10;99.90
53880;DHT22;39791;53.184;5.486;2022-10-30T09:06:07;18.00;99.90
53880;DHT22;39791;53.184;5.486;2022-10-30T09:08:33;19.60;99.90
53880;DHT22;39791;53.184;5.486;2022-10-30T09:10:58;18.80;99.90
53880;DHT22;39791;53.184;5.486;2022-10-30T09:13:25;18.60;99.90
53880;DHT22;39791;53.184;5.486;2022-10-30T09:15:51;19.40;99.90
53880;DHT22;39791;53.184;5.486;2022-10-30T09:18:16;19.70;99.90
53880;DHT22;39791;53.184;5.486;2022-10-30T09:20:42;19.70;99.90
53880;DHT22;39791;53.184;5.486;2022-10-30T09:23:08;18.60;99.90
53880;DHT22;39791;53.184;5.486;2022-10-30T09:25:33;19.70;99.90
53880;DHT22;39791;53.184;5.486;2022-10-30T09:27:59;20.00;99.90
53880;DHT22;39791;53.184;5.486;2022-10-30T09:30:25;19.80;99.90
53880;DHT22;39791;53.184;5.486;2022-10-30T09:32:58;19.10;99.90
53880;DHT22;39791;53.184;5.486;2022-10-30T09:35:24;19.80;99.90
53880;DHT22;39791;53.184;5.486;2022-10-30T09:37:50;20.20;99.90
53880;DHT22;39791;53.184;5.486;2022-10-30T09:40:22;19.80;99.90
53880;DHT22;39791;53.184;5.486;2022-10-30T09:42:56;19.30;99.90
53880;DHT22;39791;53.184;5.486;2022-10-30T09:53:50;19.70;99.90
53880;DHT22;39791;53.184;5.486;2022-10-30T09:56:23;20.00;99.90
53880;DHT22;39791;53.184;5.486;2022-10-30T09:59:26;20.20;99.90
53880;DHT22;39791;53.184;5.486;2022-10-30T10:02:08;20.40;99.90
53880;DHT22;39791;53.184;5.486;2022-10-30T10:04:43;19.80;99.90
53880;DHT22;39791;53.184;5.486;2022-10-30T10:09:41;20.70;99.90
53880;DHT22;39791;53.184;5.486;2022-10-30T10:12:12;19.90;99.90
53880;DHT22;39791;53.184;5.486;2022-10-30T10:14:44;20.40;99.90
53880;DHT22;39791;53.184;5.486;2022-10-30T10:17:19;21.00;99.90
53880;DHT22;39791;53.184;5.486;2022-10-30T10:19:59;20.90;99.90
53880;DHT22;39791;53.184;5.486;2022-10-30T10:22:29;20.90;99.90
53880;DHT22;39791;53.184;5.486;2022-10-30T10:24:58;20.40;99.90
53880;DHT22;39791;53.184;5.486;2022-10-30T10:30:19;20.40;99.90
53880;DHT22;39791;53.184;5.486;2022-10-30T10:44:11;21.20;99.90
53880;DHT22;39791;53.184;5.486;2022-10-30T10:49:37;21.10;99.90
53880;DHT22;39791;53.184;5.486;2022-10-30T10:52:28;21.10;99.90
53880;DHT22;39791;53.184;5.486;2022-10-30T10:55:03;20.80;99.90
53880;DHT22;39791;53.184;5.486;2022-10-30T10:57:35;21.50;99.90
53880;DHT22;39791;53.184;5.486;2022-10-30T11:00:04;20.90;99.90
53880;DHT22;39791;53.184;5.486;2022-10-30T11:02:37;20.70;99.90
53880;DHT22;39791;53.184;5.486;2022-10-30T11:05:34;20.90;99.90
53880;DHT22;39791;53.184;5.486;2022-10-30T11:08:25;21.40;99.90
53880;DHT22;39791;53.184;5.486;2022-10-30T11:10:59;20.80;99.90
53880;DHT22;39791;53.184;5.486;2022-10-30T11:13:42;20.60;99.90
53880;DHT22;39791;53.184;5.486;2022-10-30T11:18:51;21.40;99.90
53880;DHT22;39791;53.184;5.486;2022-10-30T11:21:23;21.00;99.90
53880;DHT22;39791;53.184;5.486;2022-10-30T11:23:50;20.50;99.90
53880;DHT22;39791;53.184;5.486;2022-10-30T11:28:53;21.10;99.90
53880;DHT22;39791;53.184;5.486;2022-10-30T11:31:37;21.30;99.90
53880;DHT22;39791;53.184;5.486;2022-10-30T11:34:30;21.30;99.90
53880;DHT22;39791;53.184;5.486;2022-10-30T11:36:56;21.30;99.90
53880;DHT22;39791;53.184;5.486;2022-10-30T11:39:27;20.90;99.90
53880;DHT22;39791;53.184;5.486;2022-10-30T11:42:13;21.20;99.90
53880;DHT22;39791;53.184;5.486;2022-10-30T11:44:47;20.80;99.90
53880;DHT22;39791;53.184;5.486;2022-10-30T11:47:14;21.40;99.90
53880;DHT22;39791;53.184;5.486;2022-10-30T11:49:50;21.50;99.90
53880;DHT22;39791;53.184;5.486;2022-10-30T11:52:19;21.40;99.90
53880;DHT22;39791;53.184;5.486;2022-10-30T11:54:49;21.00;99.90
53880;DHT22;39791;53.184;5.486;2022-10-30T11:57:21;21.00;99.90
53880;DHT22;39791;53.184;5.486;2022-10-30T11:59:49;21.80;99.90
53880;DHT22;39791;53.184;5.486;2022-10-30T12:02:28;21.20;99.90
53880;DHT22;39791;53.184;5.486;2022-10-30T12:05:00;21.60;99.90
53880;DHT22;39791;53.184;5.486;2022-10-30T12:07:32;21.50;99.90
53880;DHT22;39791;53.184;5.486;2022-10-30T12:09:58;21.30;99.90
53880;DHT22;39791;53.184;5.486;2022-10-30T12:12:40;21.40;99.90
53880;DHT22;39791;53.184;5.486;2022-10-30T12:17:39;20.90;99.90
53880;DHT22;39791;53.184;5.486;2022-10-30T12:20:06;20.80;99.90
53880;DHT22;39791;53.184;5.486;2022-10-30T12:22:33;21.00;99.90
53880;DHT22;39791;53.184;5.486;2022-10-30T12:25:02;20.80;99.90
53880;DHT22;39791;53.184;5.486;2022-10-30T12:27:29;21.20;99.90
53880;DHT22;39791;53.184;5.486;2022-10-30T12:30:04;20.80;99.90
53880;DHT22;39791;53.184;5.486;2022-10-30T12:33:00;21.00;99.90
53880;DHT22;39791;53.184;5.486;2022-10-30T12:35:39;20.60;99.90
53880;DHT22;39791;53.184;5.486;2022-10-30T12:38:16;20.70;99.90
53880;DHT22;39791;53.184;5.486;2022-10-30T12:41:11;20.90;99.90
53880;DHT22;39791;53.184;5.486;2022-10-30T12:43:41;20.90;99.90
53880;DHT22;39791;53.184;5.486;2022-10-30T12:46:30;20.90;99.90
53880;DHT22;39791;53.184;5.486;2022-10-30T12:57:23;20.70;99.90
53880;DHT22;39791;53.184;5.486;2022-10-30T13:05:33;20.50;99.90
53880;DHT22;39791;53.184;5.486;2022-10-30T13:10:48;20.10;99.90
53880;DHT22;39791;53.184;5.486;2022-10-30T13:13:26;20.50;99.90
53880;DHT22;39791;53.184;5.486;2022-10-30T13:15:56;20.30;99.90
53880;DHT22;39791;53.184;5.486;2022-10-30T13:18:24;20.30;99.90
53880;DHT22;39791;53.184;5.486;2022-10-30T13:23:51;20.20;99.90
53880;DHT22;39791;53.184;5.486;2022-10-30T13:26:29;20.60;99.90
53880;DHT22;39791;53.184;5.486;2022-10-30T13:39:47;20.60;99.90
53880;DHT22;39791;53.184;5.486;2022-10-30T13:48:26;20.10;99.90
53880;DHT22;39791;53.184;5.486;2022-10-30T13:53:25;20.10;99.90
53880;DHT22;39791;53.184;5.486;2022-10-30T13:55:54;20.00;99.90
53880;DHT22;39791;53.184;5.486;2022-10-30T13:58:33;20.50;99.90
53880;DHT22;39791;53.184;5.486;2022-10-30T14:01:22;20.60;99.90
53880;DHT22;39791;53.184;5.486;2022-10-30T14:04:05;20.30;99.90
53880;DHT22;39791;53.184;5.486;2022-10-30T14:06:50;20.00;99.90
53880;DHT22;39791;53.184;5.486;2022-10-30T14:09:40;20.00;99.90
53880;DHT22;39791;53.184;5.486;2022-10-30T14:15:26;20.30;99.90
53880;DHT22;39791;53.184;5.486;2022-10-30T14:23:07;20.10;99.90
53880;DHT22;39791;53.184;5.486;2022-10-30T14:25:37;20.40;99.90
53880;DHT22;39791;53.184;5.486;2022-10-30T14:28:03;20.30;99.90
53880;DHT22;39791;53.184;5.486;2022-10-30T14:30:29;20.20;99.90
53880;DHT22;39791;53.184;5.486;2022-10-30T14:32:58;20.10;99.90
53880;DHT22;39791;53.184;5.486;2022-10-30T14:35:34;20.20;99.90
53880;DHT22;39791;53.184;5.486;2022-10-30T14:38:24;20.40;99.90
53880;DHT22;39791;53.184;5.486;2022-10-30T14:43:30;19.70;99.90
53880;DHT22;39791;53.184;5.486;2022-10-30T14:46:01;20.20;99.90
53880;DHT22;39791;53.184;5.486;2022-10-30T14:48:52;20.00;99.90
53880;DHT22;39791;53.184;5.486;2022-10-30T14:51:34;20.20;99.90
53880;DHT22;39791;53.184;5.486;2022-10-30T14:54:09;19.70;99.90
53880;DHT22;39791;53.184;5.486;2022-10-30T14:56:47;20.20;99.90
53880;DHT22;39791;53.184;5.486;2022-10-30T15:07:26;20.10;99.90
53880;DHT22;39791;53.184;5.486;2022-10-30T15:15:14;19.30;99.90
53880;DHT22;39791;53.184;5.486;2022-10-30T15:17:49;19.20;99.90
53880;DHT22;39791;53.184;5.486;2022-10-30T15:20:17;19.30;99.90
53880;DHT22;39791;53.184;5.486;2022-10-30T15:22:45;19.90;99.90
53880;DHT22;39791;53.184;5.486;2022-10-30T15:25:18;19.60;99.90
53880;DHT22;39791;53.184;5.486;2022-10-30T15:27:46;19.70;99.90
53880;DHT22;39791;53.184;5.486;2022-10-30T15:30:17;19.40;99.90
53880;DHT22;39791;53.184;5.486;2022-10-30T15:32:44;19.80;99.90
53880;DHT22;39791;53.184;5.486;2022-10-30T15:35:25;18.90;99.90
53880;DHT22;39791;53.184;5.486;2022-10-30T15:38:06;19.10;99.90
53880;DHT22;39791;53.184;5.486;2022-10-30T15:40:38;18.90;99.90
53880;DHT22;39791;53.184;5.486;2022-10-30T15:43:06;18.60;99.90
53880;DHT22;39791;53.184;5.486;2022-10-30T15:45:37;18.70;99.90
53880;DHT22;39791;53.184;5.486;2022-10-30T15:50:51;19.60;99.90
53880;DHT22;39791;53.184;5.486;2022-10-30T15:53:18;18.60;99.90
53880;DHT22;39791;53.184;5.486;2022-10-30T15:55:45;18.70;99.90
53880;DHT22;39791;53.184;5.486;2022-10-30T15:58:16;18.50;99.90
53880;DHT22;39791;53.184;5.486;2022-10-30T16:00:57;18.30;99.90
53880;DHT22;39791;53.184;5.486;2022-10-30T16:03:23;19.30;99.90
53880;DHT22;39791;53.184;5.486;2022-10-30T16:05:49;19.00;99.90
53880;DHT22;39791;53.184;5.486;2022-10-30T16:08:20;18.20;99.90
53880;DHT22;39791;53.184;5.486;2022-10-30T16:10:48;18.00;99.90
53880;DHT22;39791;53.184;5.486;2022-10-30T16:13:18;18.40;99.90
53880;DHT22;39791;53.184;5.486;2022-10-30T16:15:46;19.00;99.90
53880;DHT22;39791;53.184;5.486;2022-10-30T16:18:23;17.90;99.90
53880;DHT22;39791;53.184;5.486;2022-10-30T16:20:56;18.90;99.90
53880;DHT22;39791;53.184;5.486;2022-10-30T16:23:22;18.90;99.90
53880;DHT22;39791;53.184;5.486;2022-10-30T16:25:57;18.00;99.90
53880;DHT22;39791;53.184;5.486;2022-10-30T16:28:28;19.00;99.90
53880;DHT22;39791;53.184;5.486;2022-10-30T16:30:56;17.90;99.90
53880;DHT22;39791;53.184;5.486;2022-10-30T16:33:25;17.90;99.90
53880;DHT22;39791;53.184;5.486;2022-10-30T16:35:52;18.60;99.90
53880;DHT22;39791;53.184;5.486;2022-10-30T16:38:19;18.20;99.90
53880;DHT22;39791;53.184;5.486;2022-10-30T16:40:46;18.60;99.90
53880;DHT22;39791;53.184;5.486;2022-10-30T16:43:31;17.90;99.90
53880;DHT22;39791;53.184;5.486;2022-10-30T16:48:42;18.50;99.90
53880;DHT22;39791;53.184;5.486;2022-10-30T16:51:13;18.50;99.90
53880;DHT22;39791;53.184;5.486;2022-10-30T16:53:39;17.50;99.90
53880;DHT22;39791;53.184;5.486;2022-10-30T16:56:19;18.60;99.90
53880;DHT22;39791;53.184;5.486;2022-10-30T16:58:45;18.60;99.90
53880;DHT22;39791;53.184;5.486;2022-10-30T17:01:11;17.70;99.90
53880;DHT22;39791;53.184;5.486;2022-10-30T17:03:38;18.60;99.90
53880;DHT22;39791;53.184;5.486;2022-10-30T17:08:51;17.60;99.90
53880;DHT22;39791;53.184;5.486;2022-10-30T17:11:19;17.60;99.90
53880;DHT22;39791;53.184;5.486;2022-10-30T17:13:59;18.20;99.90
53880;DHT22;39791;53.184;5.486;2022-10-30T17:16:37;18.60;99.90
53880;DHT22;39791;53.184;5.486;2022-10-30T17:21:56;18.50;99.90
53880;DHT22;39791;53.184;5.486;2022-10-30T17:24:30;18.50;99.90
53880;DHT22;39791;53.184;5.486;2022-10-30T17:27:01;18.10;99.90
53880;DHT22;39791;53.184;5.486;2022-10-30T17:32:18;17.40;99.90
53880;DHT22;39791;53.184;5.486;2022-10-30T17:34:45;18.30;99.90
53880;DHT22;39791;53.184;5.486;2022-10-30T17:37:10;18.20;99.90
53880;DHT22;39791;53.184;5.486;2022-10-30T17:39:36;17.10;99.90
53880;DHT22;39791;53.184;5.486;2022-10-30T17:42:01;17.10;99.90
53880;DHT22;39791;53.184;5.486;2022-10-30T17:44:33;17.00;99.90
53880;DHT22;39791;53.184;5.486;2022-10-30T17:47:01;17.90;99.90
53880;DHT22;39791;53.184;5.486;2022-10-30T17:49:32;18.30;99.90
53880;DHT22;39791;53.184;5.486;2022-10-30T17:51:58;17.00;99.90